Time;durP1;ratioP1;P1;durP2;ratioP2;P2;SDS_P1;SDS_P2;PMS_P1;PMS_P2;Temp;Humidity;BMP_temperature;BMP_pressure;BME280_temperature;BME280_humidity;BME280_pressure;Samples;Min_cycle;Max_cycle;Signal;HPM_P1;HPM_P2
2023/07/27 00:01:06;;;;;;;5.57;2.47;;;12.30;99.90;;;11.20;100.00;100593.34;4990519;28;20062;-75
2023/07/27 00:03:32;;;;;;;5.22;2.35;;;12.30;99.90;;;11.18;100.00;100589.94;5002166;28;20029;-75
2023/07/27 00:05:58;;;;;;;6.32;2.58;;;12.20;99.90;;;11.15;100.00;100587.47;4987641;28;20405;-75
2023/07/27 00:08:23;;;;;;;6.72;2.50;;;12.20;99.90;;;11.14;100.00;100580.50;5003734;28;20112;-75
2023/07/27 00:10:49;;;;;;;6.90;3.17;;;12.20;99.90;;;11.11;100.00;100580.66;5009095;28;20117;-74
2023/07/27 00:13:18;;;;;;;10.43;2.10;;;12.20;99.90;;;11.11;100.00;100585.94;4994837;28;20131;-75
2023/07/27 00:15:44;;;;;;;7.68;2.40;;;12.10;99.90;;;11.09;100.00;100579.88;5016494;28;20053;-75
2023/07/27 00:18:10;;;;;;;4.55;2.33;;;12.10;99.90;;;11.06;100.00;100582.69;4979334;28;20555;-75
2023/07/27 00:20:35;;;;;;;9.32;3.00;;;12.10;99.90;;;11.03;100.00;100574.91;5025804;28;20045;-75
2023/07/27 00:23:01;;;;;;;10.02;2.33;;;12.10;99.90;;;11.02;100.00;100574.06;4993186;28;20081;-74
2023/07/27 00:25:27;;;;;;;8.57;2.65;;;12.10;99.90;;;10.99;100.00;100571.63;5006426;28;20122;-74
2023/07/27 00:27:53;;;;;;;7.20;2.75;;;12.10;99.90;;;10.96;100.00;100565.63;5029965;28;20046;-75
2023/07/27 00:30:19;;;;;;;9.82;2.75;;;12.00;99.90;;;10.95;100.00;100574.44;5002548;28;20522;-74
2023/07/27 00:32:44;;;;;;;7.63;3.10;;;12.00;99.90;;;10.91;100.00;100571.13;5017539;28;20033;-75
2023/07/27 00:35:10;;;;;;;7.38;2.92;;;12.00;99.90;;;10.89;100.00;100570.38;4994358;28;20462;-75
2023/07/27 00:37:36;;;;;;;9.15;2.90;;;11.90;99.90;;;10.85;100.00;100577.56;4999485;28;20064;-76
2023/07/27 00:40:02;;;;;;;10.65;3.10;;;11.90;99.90;;;10.84;100.00;100573.22;4985318;28;20563;-74
2023/07/27 00:42:28;;;;;;;9.98;2.95;;;11.90;99.90;;;10.83;100.00;100573.31;5000615;28;20048;-75
2023/07/27 00:44:54;;;;;;;8.40;3.45;;;11.90;99.90;;;10.81;100.00;100580.44;5001514;28;20042;-75
2023/07/27 00:47:20;;;;;;;11.60;3.40;;;11.90;99.90;;;10.79;100.00;100571.75;4996605;28;20104;-75
2023/07/27 00:49:45;;;;;;;10.63;3.25;;;11.90;99.90;;;10.75;100.00;100571.03;4994891;28;20045;-74
2023/07/27 00:52:11;;;;;;;8.07;3.13;;;11.90;99.90;;;10.72;100.00;100571.19;5010264;28;20046;-75
2023/07/27 00:54:37;;;;;;;7.80;3.65;;;11.80;99.90;;;10.71;100.00;100564.22;4992641;28;20500;-75
2023/07/27 00:57:03;;;;;;;7.10;3.40;;;11.80;99.90;;;10.69;100.00;100555.56;5001296;28;20034;-75
2023/07/27 00:59:29;;;;;;;9.18;3.17;;;11.80;99.90;;;10.68;100.00;100559.97;4998157;28;20075;-74
2023/07/27 01:01:56;;;;;;;8.93;3.10;;;11.80;99.90;;;10.65;100.00;100560.13;4973149;28;20460;-75
2023/07/27 01:04:22;;;;;;;5.95;2.70;;;11.70;99.90;;;10.64;100.00;100563.66;5028358;28;20029;-75
2023/07/27 01:06:48;;;;;;;7.20;2.78;;;11.70;99.90;;;10.64;100.00;100552.28;5026754;28;20056;-74
2023/07/27 01:09:13;;;;;;;9.55;3.60;;;11.70;99.90;;;10.66;100.00;100560.97;5021692;28;20037;-75
2023/07/27 01:12:04;;;;;;;9.65;3.88;;;11.80;99.90;;;10.68;100.00;100559.13;5001758;28;20082;-74
2023/07/27 01:14:36;;;;;;;9.45;3.97;;;11.80;99.90;;;10.66;100.00;100564.44;5000504;28;20411;-75
2023/07/27 01:17:24;;;;;;;12.48;4.22;;;11.80;99.90;;;10.64;100.00;100558.41;4984028;28;20123;-75
2023/07/27 01:19:59;;;;;;;10.68;4.10;;;11.80;99.90;;;10.64;100.00;100554.94;4993315;28;20038;-75
2023/07/27 01:22:31;;;;;;;8.65;3.88;;;11.80;99.90;;;10.64;100.00;100558.41;5005599;28;20033;-74
2023/07/27 01:25:07;;;;;;;12.95;4.55;;;11.80;99.90;;;10.63;100.00;100551.44;4990481;28;20049;-75
2023/07/27 01:28:07;;;;;;;18.20;4.10;;;11.70;99.90;;;10.62;100.00;100549.72;5001765;28;20037;-75
2023/07/27 01:30:55;;;;;;;17.85;3.88;;;11.70;99.90;;;10.62;100.00;100549.72;5028546;28;20040;-75
2023/07/27 01:33:41;;;;;;;11.38;4.18;;;11.70;99.90;;;10.60;100.00;100550.75;4999488;28;20041;-75
2023/07/27 01:36:21;;;;;;;14.00;4.57;;;11.70;99.90;;;10.57;100.00;100546.47;5023308;28;20040;-74
2023/07/27 01:38:50;;;;;;;14.80;4.15;;;11.70;99.90;;;10.60;100.00;100556.00;4999052;28;20071;-74
2023/07/27 01:41:17;;;;;;;8.02;4.00;;;11.70;99.90;;;10.62;100.00;100547.09;5027519;28;20096;-75
2023/07/27 01:43:44;;;;;;;11.65;4.22;;;11.70;99.90;;;10.64;100.00;100554.94;5003209;28;20037;-75
2023/07/27 01:46:11;;;;;;;11.63;4.95;;;11.80;99.90;;;10.66;100.00;100545.16;5019902;28;20030;-74
2023/07/27 01:48:40;;;;;;;12.00;3.78;;;11.80;99.90;;;10.67;100.00;100546.88;5002140;28;20030;-74
2023/07/27 01:51:09;;;;;;;10.38;4.22;;;11.80;99.90;;;10.69;100.00;100547.66;5001783;28;20030;-75
2023/07/27 01:53:37;;;;;;;6.20;3.95;;;11.80;99.90;;;10.73;100.00;100543.09;5011328;28;20025;-74
2023/07/27 01:56:05;;;;;;;8.13;4.05;;;11.80;99.90;;;10.74;100.00;100535.09;4978017;28;20058;-74
2023/07/27 01:58:32;;;;;;;12.63;3.75;;;11.80;99.90;;;10.78;100.00;100541.94;5025668;28;20042;-75
2023/07/27 02:00:59;;;;;;;6.30;3.30;;;11.80;99.90;;;10.80;100.00;100541.88;5002112;28;20041;-75
2023/07/27 02:03:26;;;;;;;8.77;2.70;;;11.80;99.90;;;10.77;100.00;100537.56;5028320;28;20148;-75
2023/07/27 02:05:52;;;;;;;10.57;3.05;;;11.80;99.90;;;10.76;100.00;100541.16;5034617;28;20038;-74
2023/07/27 02:08:17;;;;;;;6.85;3.55;;;11.80;99.90;;;10.76;100.00;100540.31;4986052;28;20160;-75
2023/07/27 02:10:58;;;;;;;7.72;3.50;;;11.80;99.90;;;10.74;100.00;100537.75;5022222;28;20045;-74
2023/07/27 02:13:40;;;;;;;9.00;3.78;;;11.80;99.90;;;10.73;100.00;100541.28;5000342;28;20041;-74
2023/07/27 02:16:45;;;;;;;10.60;3.97;;;11.80;99.90;;;10.70;100.00;100536.19;5031680;28;20120;-75
2023/07/27 02:19:16;;;;;;;12.45;3.88;;;11.70;99.90;;;10.67;100.00;100533.72;5005997;28;20050;-75
2023/07/27 02:21:45;;;;;;;9.52;3.85;;;11.80;99.90;;;10.66;100.00;100526.75;5008185;28;20045;-75
2023/07/27 02:24:11;;;;;;;9.38;3.60;;;11.80;99.90;;;10.65;100.00;100527.69;5017321;28;20179;-74
2023/07/27 02:26:37;;;;;;;13.40;4.25;;;11.80;99.90;;;10.64;100.00;100525.97;5016807;28;20038;-75
2023/07/27 02:29:03;;;;;;;13.15;3.88;;;11.70;99.90;;;10.64;100.00;100518.91;4995031;28;20096;-75
2023/07/27 02:31:28;;;;;;;8.23;3.20;;;11.70;99.90;;;10.65;100.00;100525.91;4993228;28;20030;-75
2023/07/27 02:33:54;;;;;;;8.45;3.83;;;11.70;99.90;;;10.63;100.00;100526.91;4984081;28;22379;-75
2023/07/27 02:36:20;;;;;;;11.50;3.60;;;11.70;99.90;;;10.61;100.00;100519.06;4965388;28;20631;-74
2023/07/27 02:38:46;;;;;;;16.77;3.70;;;11.70;99.90;;;10.59;100.00;100518.28;5006814;28;20105;-75
2023/07/27 02:41:12;;;;;;;16.52;4.97;;;11.70;99.90;;;10.58;100.00;100521.00;5003502;28;20103;-74
2023/07/27 02:43:38;;;;;;;20.83;4.40;;;11.70;99.90;;;10.57;100.00;100514.03;5015744;28;20161;-75
2023/07/27 02:46:05;;;;;;;10.10;4.40;;;11.70;99.90;;;10.55;100.00;100508.00;4999775;28;20058;-74
2023/07/27 02:48:31;;;;;;;15.35;4.95;;;11.60;99.90;;;10.53;100.00;100507.22;4992782;28;20033;-74
2023/07/27 02:50:57;;;;;;;14.13;4.70;;;11.60;99.90;;;10.53;100.00;100512.47;5030034;28;20518;-74
2023/07/27 02:53:22;;;;;;;9.27;4.43;;;11.60;99.90;;;10.52;100.00;100506.38;4993079;28;20041;-74
2023/07/27 02:56:08;;;;;;;13.45;5.35;;;11.60;99.90;;;10.53;100.00;100504.59;5017158;28;21070;-74
2023/07/27 02:58:37;;;;;;;13.03;5.10;;;11.60;99.90;;;10.51;100.00;100501.19;4993085;28;20054;-74
2023/07/27 03:01:03;;;;;;;13.88;5.00;;;11.70;99.90;;;10.51;100.00;100504.66;5011642;28;20030;-74
2023/07/27 03:03:29;;;;;;;17.38;4.95;;;11.60;99.90;;;10.53;100.00;100509.84;5023478;28;20796;-74
2023/07/27 03:05:59;;;;;;;9.45;4.45;;;11.60;99.90;;;10.53;100.00;100509.84;5004137;28;20044;-74
2023/07/27 03:08:29;;;;;;;21.17;5.40;;;11.60;99.90;;;10.53;100.00;100517.75;4998480;28;20055;-75
2023/07/27 03:11:00;;;;;;;11.63;4.75;;;11.60;99.90;;;10.49;100.00;100516.19;5000415;28;20117;-74
2023/07/27 03:13:25;;;;;;;17.35;5.22;;;11.60;99.90;;;10.47;100.00;100513.63;5026400;28;20029;-75
2023/07/27 03:15:53;;;;;;;11.18;4.07;;;11.60;99.90;;;10.48;100.00;100525.88;4995346;28;20531;-74
2023/07/27 03:18:20;;;;;;;23.40;5.13;;;11.60;99.90;;;10.49;100.00;100513.56;5003085;28;20045;-74
2023/07/27 03:20:46;;;;;;;16.98;4.93;;;11.60;99.90;;;10.50;100.00;100507.38;4983369;28;20041;-74
2023/07/27 03:23:12;;;;;;;9.63;4.40;;;11.60;99.90;;;10.51;100.00;100512.56;5000981;28;20164;-74
2023/07/27 03:25:38;;;;;;;15.95;4.25;;;11.60;99.90;;;10.54;100.00;100512.41;5010826;28;20049;-75
2023/07/27 03:28:06;;;;;;;17.13;4.50;;;11.60;99.90;;;10.55;100.00;100510.63;4983604;28;20050;-74
2023/07/27 03:30:41;;;;;;;22.25;5.22;;;11.60;99.90;;;10.58;100.00;100510.47;4986972;28;20483;-75
2023/07/27 03:33:07;;;;;;;16.17;4.95;;;11.70;99.90;;;10.60;100.00;100511.25;4991999;28;20127;-74
2023/07/27 03:35:34;;;;;;;12.38;4.15;;;11.70;99.90;;;10.62;100.00;100512.03;5010263;28;20610;-74
2023/07/27 03:38:00;;;;;;;12.23;4.25;;;11.70;99.90;;;10.65;100.00;100506.63;4994623;28;20495;-75
2023/07/27 03:40:26;;;;;;;12.88;4.45;;;11.70;99.90;;;10.67;100.00;100504.75;5001132;28;20040;-74
2023/07/27 03:42:52;;;;;;;7.40;3.60;;;11.70;99.90;;;10.72;100.00;100505.38;5018575;28;20045;-75
2023/07/27 03:45:18;;;;;;;13.55;4.20;;;11.70;99.90;;;10.77;100.00;100505.13;5018697;28;20029;-74
2023/07/27 03:47:45;;;;;;;9.50;3.90;;;11.80;99.90;;;10.80;100.00;100500.56;5000651;28;20503;-74
2023/07/27 03:50:11;;;;;;;8.98;3.65;;;11.80;99.90;;;10.86;100.00;100495.00;5002123;28;20042;-75
2023/07/27 03:52:37;;;;;;;11.25;3.78;;;11.90;99.90;;;10.92;100.00;100506.13;4995941;28;20034;-75
2023/07/27 03:55:04;;;;;;;13.85;4.20;;;11.90;99.90;;;10.97;100.00;100506.72;5028217;28;20419;-74
2023/07/27 03:57:30;;;;;;;17.02;3.88;;;11.90;99.90;;;11.03;100.00;100495.88;5028197;28;20504;-73
2023/07/27 04:00:00;;;;;;;14.95;4.68;;;12.00;99.90;;;11.09;100.00;100506.09;4999899;28;20164;-74
2023/07/27 04:02:27;;;;;;;6.78;3.60;;;12.10;99.90;;;11.16;100.00;100504.00;4987029;28;20048;-74
2023/07/27 04:04:53;;;;;;;12.32;3.58;;;12.20;99.90;;;11.26;100.00;100506.06;4970444;28;20698;-75
2023/07/27 04:07:20;;;;;;;9.68;3.60;;;12.60;99.90;;;11.94;100.00;100509.50;5003864;28;20046;-74
2023/07/27 04:09:46;;;;;;;8.63;3.58;;;14.10;99.90;;;13.68;100.00;100519.47;5012205;28;20030;-74
2023/07/27 04:12:12;;;;;;;16.27;3.10;;;15.60;99.90;;;15.45;98.46;100525.47;5028531;28;20530;-75
2023/07/27 04:14:38;;;;;;;12.23;2.72;;;17.10;99.90;;;17.01;85.86;100534.44;5025129;28;20042;-74
2023/07/27 04:17:05;;;;;;;9.23;2.88;;;18.30;99.90;;;18.37;76.71;100522.75;5001429;28;20041;-74
2023/07/27 04:19:32;;;;;;;6.57;2.35;;;19.50;99.90;;;19.67;70.67;100536.66;5001095;28;20030;-75
2023/07/27 04:21:58;;;;;;;11.63;2.13;;;20.60;99.90;;;20.86;66.56;100548.28;4995558;28;20041;-74
2023/07/27 04:24:29;;;;;;;7.15;2.92;;;21.40;99.90;;;21.82;62.84;100550.88;4973728;28;20639;-74
2023/07/27 04:26:55;;;;;;;9.43;2.25;;;22.20;99.90;;;22.53;60.30;100563.59;5015317;28;20512;-75
2023/07/27 04:29:20;;;;;;;8.32;2.03;;;22.70;99.90;;;23.18;58.34;100563.31;5001395;28;20050;-75
2023/07/27 04:31:46;;;;;;;15.35;2.58;;;23.30;99.90;;;23.82;56.45;100569.22;5025931;28;20116;-75
2023/07/27 04:34:12;;;;;;;10.77;2.60;;;23.80;99.90;;;24.55;54.34;100583.91;5000114;28;20507;-75
2023/07/27 04:36:38;;;;;;;12.25;2.38;;;24.00;99.90;;;24.24;54.14;100589.03;5021457;28;20232;-75
2023/07/27 04:39:03;;;;;;;;;;;23.60;99.90;;;23.51;55.12;100583.13;4996121;28;20591;-75
2023/07/27 04:41:29;;;;;;;9.45;1.92;;;22.80;99.90;;;22.19;57.87;100568.72;5000778;28;19917;-75
2023/07/27 04:43:57;;;;;;;8.15;1.80;;;22.30;99.90;;;21.99;58.32;100559.97;5000379;28;20121;-75
2023/07/27 04:46:23;;;;;;;8.43;2.33;;;22.60;99.90;;;23.29;55.94;100572.94;4999420;28;20060;-74
2023/07/27 04:48:49;;;;;;;6.43;2.03;;;23.20;99.90;;;24.72;53.20;100596.38;4992341;28;20041;-75
2023/07/27 04:51:15;;;;;;;7.93;1.80;;;24.10;99.90;;;26.07;50.60;100609.34;4992992;28;20065;-76
2023/07/27 04:53:40;;;;;;;3.58;1.60;;;25.00;99.90;;;27.03;48.55;100618.91;4984045;28;20116;-74
2023/07/27 04:56:06;;;;;;;12.65;1.95;;;25.60;99.90;;;27.69;46.91;100634.50;5015022;28;20061;-75
2023/07/27 04:58:32;;;;;;;8.43;1.83;;;26.20;99.90;;;28.25;46.25;100634.91;4984080;28;20044;-75
2023/07/27 05:00:58;;;;;;;6.35;1.80;;;26.70;99.20;;;28.91;44.36;100651.06;4988541;28;20041;-74
2023/07/27 05:03:23;;;;;;;;;;;26.80;99.30;;;29.92;43.73;100661.69;5026504;28;20064;-75
2023/07/27 05:05:53;;;;;;;8.70;1.63;;;27.70;97.80;;;30.40;42.11;100658.19;4976427;28;19916;-75
2023/07/27 05:08:18;;;;;;;8.07;1.77;;;28.20;97.10;;;30.82;40.96;100667.06;4976808;28;20034;-75
2023/07/27 05:10:44;;;;;;;7.18;1.98;;;28.40;96.20;;;31.16;40.32;100682.41;5007480;28;21636;-75
2023/07/27 05:13:10;;;;;;;5.63;1.60;;;28.80;95.90;;;31.52;39.53;100680.38;5002042;28;20063;-75
2023/07/27 05:15:40;;;;;;;8.68;1.73;;;29.00;95.50;;;31.93;39.40;100682.81;5000232;28;20129;-75
2023/07/27 05:18:06;;;;;;;6.13;1.95;;;29.40;95.00;;;32.38;38.53;100690.22;5001537;28;20053;-75
2023/07/27 05:20:35;;;;;;;9.13;1.90;;;29.70;94.60;;;32.78;37.50;100693.59;5003335;28;20026;-75
2023/07/27 05:23:01;;;;;;;7.10;1.70;;;29.90;94.00;;;33.08;37.21;100698.47;5025941;28;20040;-75
2023/07/27 05:25:27;;;;;;;6.85;2.05;;;30.20;93.50;;;33.20;36.80;100706.81;5005701;28;20029;-75
2023/07/27 05:27:55;;;;;;;5.60;2.00;;;30.40;93.60;;;33.73;36.16;100719.19;5010869;28;20034;-75
2023/07/27 05:30:21;;;;;;;3.33;1.77;;;30.70;93.40;;;34.02;35.47;100713.00;4975098;28;20037;-75
2023/07/27 05:32:47;;;;;;;2.65;1.60;;;30.80;92.60;;;34.22;35.36;100723.72;4994514;28;20106;-75
2023/07/27 05:35:12;;;;;;;6.25;1.55;;;31.00;92.20;;;34.23;35.12;100732.75;4984763;28;20041;-75
2023/07/27 05:37:40;;;;;;;6.00;1.65;;;31.10;92.50;;;34.58;35.23;100732.97;4986931;28;20129;-75
2023/07/27 05:40:09;;;;;;;4.45;1.83;;;31.20;91.70;;;34.49;34.74;100737.91;4983200;28;20041;-75
2023/07/27 05:42:35;;;;;;;10.80;1.88;;;31.30;91.80;;;34.59;34.43;100744.72;4991026;28;20041;-75
2023/07/27 05:45:01;;;;;;;6.03;1.88;;;31.40;91.50;;;34.49;34.33;100743.38;4962756;28;20041;-75
2023/07/27 05:47:26;;;;;;;3.88;2.00;;;31.50;91.50;;;34.66;34.25;100746.31;4982822;28;20049;-75
2023/07/27 05:49:52;;;;;;;4.15;1.92;;;31.40;91.20;;;34.53;34.33;100736.34;4994101;28;20121;-74
2023/07/27 05:52:18;;;;;;;5.72;2.10;;;31.40;91.30;;;34.47;34.38;100737.31;4993812;28;20095;-75
2023/07/27 05:54:43;;;;;;;6.68;2.30;;;31.50;91.20;;;34.68;34.17;100746.09;5002682;28;20164;-75
2023/07/27 05:57:09;;;;;;;7.25;2.22;;;31.50;91.00;;;34.70;34.14;100747.53;4973851;28;20122;-74
2023/07/27 05:59:35;;;;;;;13.70;2.13;;;31.60;90.70;;;34.52;34.30;100750.28;5020852;28;20080;-74
2023/07/27 06:02:01;;;;;;;11.10;2.33;;;31.60;90.30;;;34.42;34.29;100749.97;5002612;28;20455;-75
2023/07/27 06:04:29;;;;;;;6.50;2.28;;;31.60;90.70;;;34.38;34.30;100749.59;4972983;28;20125;-74
2023/07/27 06:06:55;;;;;;;6.97;2.13;;;31.60;90.30;;;34.32;34.19;100750.50;4989525;28;20120;-74
2023/07/27 06:09:21;;;;;;;9.02;2.20;;;31.60;90.30;;;34.25;34.45;100747.84;4997289;28;20577;-75
2023/07/27 06:11:47;;;;;;;12.13;2.53;;;31.80;90.70;;;34.85;33.98;100749.03;5008428;28;20156;-75
2023/07/27 06:14:13;;;;;;;7.90;2.60;;;32.30;90.20;;;35.27;33.22;100751.78;4999839;28;20044;-74
2023/07/27 06:16:38;;;;;;;7.03;2.47;;;32.70;88.30;;;35.16;33.17;100755.34;4994893;28;20440;-73
2023/07/27 06:19:11;;;;;;;8.02;2.55;;;32.80;88.20;;;35.22;33.05;100751.69;4981786;28;20058;-74
2023/07/27 06:21:37;;;;;;;4.50;2.50;;;33.00;88.40;;;35.45;33.04;100750.91;4991383;28;20679;-74
2023/07/27 06:24:03;;;;;;;18.20;2.88;;;33.40;88.60;;;35.88;32.70;100749.75;4983845;28;20042;-73
2023/07/27 06:26:29;;;;;;;7.90;2.45;;;33.80;86.10;;;35.96;32.13;100763.06;4997895;28;20033;-74
2023/07/27 06:28:56;;;;;;;12.32;2.20;;;33.90;85.50;;;35.67;32.34;100756.66;4998972;28;20038;-74
2023/07/27 06:31:21;;;;;;;10.15;2.50;;;34.00;85.10;;;35.66;32.29;100758.56;5000078;28;20038;-74
2023/07/27 06:33:47;;;;;;;21.77;2.72;;;34.10;84.00;;;35.85;31.79;100755.69;4975658;28;20034;-74
2023/07/27 06:36:14;;;;;;;18.90;2.70;;;34.20;85.10;;;36.01;32.33;100759.66;4975654;28;20499;-74
2023/07/27 06:38:40;;;;;;;5.95;2.17;;;34.40;83.60;;;36.12;31.77;100758.78;4999264;28;20703;-75
2023/07/27 06:41:06;;;;;;;6.05;2.50;;;34.70;83.50;;;36.25;31.89;100764.03;4987144;28;20054;-74
2023/07/27 06:43:32;;;;;;;7.20;2.33;;;35.00;83.30;;;36.50;31.51;100769.25;4991772;28;20037;-74
2023/07/27 06:45:58;;;;;;;4.88;2.40;;;35.20;83.10;;;36.89;31.01;100769.50;4987965;28;20029;-74
2023/07/27 06:48:27;;;;;;;8.15;2.88;;;35.50;79.80;;;36.80;30.76;100770.94;5001387;28;20033;-74
2023/07/27 06:50:53;;;;;;;9.48;2.70;;;35.70;80.90;;;36.87;30.78;100765.31;5001488;28;20022;-74
2023/07/27 06:53:18;;;;;;;18.90;3.05;;;35.80;78.90;;;36.73;30.90;100760.13;4999648;28;20104;-74
2023/07/27 06:55:44;;;;;;;5.60;2.30;;;35.80;78.00;;;36.55;30.36;100763.84;4992096;28;20045;-74
2023/07/27 06:58:10;;;;;;;14.02;2.45;;;35.80;78.80;;;36.77;30.63;100762.38;5004919;28;20056;-74
2023/07/27 07:00:36;;;;;;;11.43;2.60;;;36.00;78.80;;;37.00;30.43;100753.19;4996737;28;20510;-74
2023/07/27 07:03:02;;;;;;;6.35;2.45;;;36.20;77.10;;;37.12;29.84;100754.00;5020473;28;20113;-74
2023/07/27 07:05:28;;;;;;;5.22;2.40;;;36.30;76.20;;;36.87;29.77;100762.56;5027919;28;20034;-74
2023/07/27 07:07:57;;;;;;;7.15;2.47;;;36.40;75.30;;;36.63;30.48;100750.84;4996529;28;20026;-74
2023/07/27 07:10:22;;;;;;;4.85;2.00;;;36.20;77.40;;;36.60;30.87;100740.34;4987435;28;20076;-74
2023/07/27 07:12:59;;;;;;;5.85;2.25;;;36.00;76.70;;;35.67;31.34;100730.09;4994516;28;20116;-74
2023/07/27 07:15:25;;;;;;;5.85;1.95;;;35.60;76.60;;;35.45;31.74;100723.53;4991770;28;20052;-74
2023/07/27 07:17:51;;;;;;;5.20;2.40;;;35.30;77.50;;;35.11;31.82;100704.84;5008079;28;20045;-74
2023/07/27 07:20:18;;;;;;;3.58;2.28;;;35.20;79.50;;;35.71;32.38;100705.81;5001109;28;20121;-74
2023/07/27 07:22:43;;;;;;;5.00;2.33;;;35.20;77.40;;;35.17;32.05;100700.38;5003146;28;20087;-75
2023/07/27 07:25:09;;;;;;;6.22;2.30;;;35.20;77.80;;;35.36;31.79;100684.72;5017156;28;20111;-74
2023/07/27 07:27:35;;;;;;;4.65;2.20;;;35.20;76.10;;;35.16;31.60;100695.16;4991729;28;20092;-74
2023/07/27 07:30:04;;;;;;;7.80;2.60;;;35.30;76.20;;;35.34;31.33;100686.84;5019083;28;20045;-74
2023/07/27 07:32:31;;;;;;;5.90;2.30;;;35.30;75.70;;;35.35;31.52;100687.69;5010590;28;20092;-74
2023/07/27 07:34:57;;;;;;;9.70;2.10;;;35.20;75.20;;;34.96;31.66;100685.31;4955995;28;20042;-75
2023/07/27 07:37:23;;;;;;;10.13;2.38;;;35.10;75.70;;;35.09;31.63;100684.28;4985575;28;20030;-74
2023/07/27 07:39:49;;;;;;;4.50;2.75;;;35.20;76.40;;;35.17;32.25;100685.88;5016493;28;20045;-74
2023/07/27 07:42:15;;;;;;;8.00;2.40;;;35.20;75.20;;;35.25;31.08;100677.31;5015287;28;20047;-74
2023/07/27 07:44:41;;;;;;;3.50;2.10;;;35.30;74.80;;;35.13;31.14;100685.50;4985314;28;20042;-74
2023/07/27 07:47:09;;;;;;;6.45;2.42;;;35.20;75.80;;;35.20;31.55;100674.44;5012688;28;20045;-74
2023/07/27 07:49:35;;;;;;;12.57;2.42;;;35.20;75.00;;;35.31;31.33;100679.09;4994331;28;20036;-75
2023/07/27 07:52:00;;;;;;;5.28;2.50;;;35.40;74.70;;;35.46;30.99;100687.69;4995222;28;20043;-74
2023/07/27 07:54:29;;;;;;;6.00;2.70;;;35.50;75.40;;;35.60;31.29;100685.56;5027576;28;20030;-74
2023/07/27 07:56:56;;;;;;;9.77;2.95;;;35.40;73.30;;;34.86;31.21;100677.69;4998537;28;20053;-75
2023/07/27 07:59:23;;;;;;;5.13;1.98;;;35.00;73.10;;;34.15;32.10;100667.47;4999025;28;22849;-74
2023/07/27 08:01:49;;;;;;;3.55;2.05;;;34.60;72.30;;;33.91;31.72;100665.41;5012068;28;20043;-74
2023/07/27 08:04:15;;;;;;;4.57;2.28;;;34.30;74.30;;;34.13;31.37;100664.13;4996069;28;20401;-74
2023/07/27 08:06:41;;;;;;;4.95;2.10;;;34.20;73.40;;;33.77;31.65;100652.97;5010022;28;20157;-74
2023/07/27 08:09:08;;;;;;;4.35;2.03;;;33.90;74.50;;;33.47;32.34;100648.19;5006799;28;20040;-74
2023/07/27 08:11:34;;;;;;;6.38;1.90;;;33.50;73.40;;;32.68;32.74;100641.47;4985397;28;20076;-74
2023/07/27 08:14:08;;;;;;;4.53;2.25;;;33.10;74.50;;;32.29;33.10;100632.44;5007882;28;20075;-74
2023/07/27 08:16:34;;;;;;;3.65;1.92;;;32.70;73.20;;;31.98;33.20;100620.38;4999119;28;20034;-75
2023/07/27 08:19:00;;;;;;;5.15;1.70;;;32.40;75.00;;;32.16;32.72;100624.31;4998461;28;20117;-75
2023/07/27 08:21:28;;;;;;;5.50;1.65;;;32.30;73.20;;;32.16;32.48;100621.56;5005639;28;20045;-74
2023/07/27 08:23:54;;;;;;;3.75;1.20;;;32.20;72.90;;;31.96;31.97;100621.63;5011728;28;20037;-74
2023/07/27 08:26:20;;;;;;;3.42;1.52;;;32.10;72.90;;;31.98;32.87;100614.94;5007910;28;20109;-74
2023/07/27 08:28:47;;;;;;;2.30;1.65;;;31.90;72.90;;;31.70;32.41;100609.78;5002557;28;20095;-74
2023/07/27 08:31:14;;;;;;;3.58;1.90;;;31.60;74.10;;;31.10;33.21;100596.22;4997654;28;20055;-74
2023/07/27 08:33:40;;;;;;;5.15;2.60;;;30.90;75.50;;;29.34;36.17;100558.03;4998040;28;20719;-74
2023/07/27 08:36:05;;;;;;;2.53;1.80;;;30.20;77.20;;;29.32;35.75;100560.91;5000659;28;20128;-74
2023/07/27 08:38:33;;;;;;;4.80;1.70;;;29.40;77.30;;;28.50;36.92;100537.09;4981252;28;20053;-74
2023/07/27 08:41:01;;;;;;;3.22;1.98;;;28.90;78.90;;;28.26;37.78;100525.56;5001935;28;20492;-74
2023/07/27 08:43:27;;;;;;;3.75;2.35;;;28.50;81.30;;;28.30;38.06;100518.75;5023025;28;20045;-75
2023/07/27 08:45:54;;;;;;;5.93;2.42;;;28.20;81.60;;;27.55;39.27;100509.09;5006805;28;20037;-74
2023/07/27 08:48:24;;;;;;;4.78;2.17;;;27.70;82.10;;;26.92;40.63;100492.38;5027399;28;20088;-75
2023/07/27 08:50:51;;;;;;;5.00;2.10;;;27.40;83.70;;;26.82;40.89;100481.81;5016659;28;20037;-74
2023/07/27 08:53:17;;;;;;;3.17;2.08;;;27.20;83.30;;;26.49;41.14;100483.94;4972739;28;20033;-74
2023/07/27 08:55:43;;;;;;;5.30;2.30;;;27.00;84.50;;;26.38;41.49;100469.84;4996290;28;20069;-75
2023/07/27 08:58:10;;;;;;;4.10;2.15;;;26.70;84.60;;;25.93;42.24;100460.72;4996424;28;20109;-74
2023/07/27 09:00:43;;;;;;;4.50;2.10;;;26.50;84.50;;;25.73;42.21;100459.47;5006118;28;20084;-74
2023/07/27 09:03:09;;;;;;;6.13;2.38;;;26.30;85.60;;;25.51;42.47;100451.16;4962617;28;20063;-75
2023/07/27 09:05:56;;;;;;;3.97;2.05;;;26.20;86.40;;;25.33;43.00;100448.69;5003359;28;20045;-74
2023/07/27 09:08:22;;;;;;;3.92;2.22;;;25.90;85.70;;;25.10;43.17;100428.88;5020259;28;20034;-74
2023/07/27 09:10:52;;;;;;;4.40;2.30;;;25.80;86.60;;;25.08;43.28;100430.91;4992759;28;20403;-74
2023/07/27 09:13:18;;;;;;;5.47;2.55;;;25.70;88.30;;;25.20;43.83;100431.41;5002475;28;20594;-74
2023/07/27 09:15:45;;;;;;;6.57;2.40;;;25.70;87.30;;;25.26;42.79;100420.75;5003671;28;20052;-74
2023/07/27 09:18:14;;;;;;;6.22;2.45;;;25.80;87.90;;;25.53;43.20;100432.94;4987271;28;20476;-75
2023/07/27 09:20:43;;;;;;;6.88;2.10;;;25.90;88.40;;;25.68;43.11;100434.88;5004782;28;20112;-74
2023/07/27 09:23:18;;;;;;;5.65;2.33;;;26.00;85.60;;;25.51;42.64;100423.38;5025264;28;20034;-75
2023/07/27 09:25:54;;;;;;;7.68;2.33;;;26.00;86.90;;;25.61;42.59;100429.34;5004211;28;20608;-75
2023/07/27 09:28:33;;;;;;;6.28;2.08;;;26.10;88.00;;;25.90;42.30;100423.31;5011978;28;20062;-74
2023/07/27 09:31:03;;;;;;;6.90;2.28;;;26.20;84.00;;;25.86;41.30;100432.75;4995941;28;20156;-75
2023/07/27 09:33:32;;;;;;;6.82;2.00;;;26.10;85.50;;;25.46;42.34;100423.88;5012552;28;20042;-75
2023/07/27 09:35:58;;;;;;;3.60;2.30;;;26.00;85.40;;;25.40;42.37;100416.50;5020086;28;20044;-74
2023/07/27 09:38:36;;;;;;;4.43;2.33;;;25.90;85.00;;;25.43;41.90;100412.63;4995615;28;20064;-75
2023/07/27 09:41:11;;;;;;;5.90;2.17;;;25.90;84.60;;;25.40;42.02;100416.50;5016911;28;20091;-75
2023/07/27 09:43:41;;;;;;;8.38;1.85;;;25.90;84.60;;;25.38;41.52;100419.38;5031832;28;20029;-75
2023/07/27 09:46:08;;;;;;;4.93;2.42;;;25.90;84.70;;;25.48;41.79;100423.69;5034175;28;20038;-74
2023/07/27 09:48:36;;;;;;;5.95;2.63;;;25.90;85.20;;;25.27;41.74;100413.50;5012543;28;20034;-77
2023/07/27 09:51:07;;;;;;;6.50;2.20;;;25.80;84.90;;;25.25;41.26;100408.31;4994351;28;20064;-76
2023/07/27 09:53:38;;;;;;;3.75;2.00;;;25.70;85.10;;;25.25;41.98;100405.63;4981341;28;20041;-77
2023/07/27 09:56:11;;;;;;;4.45;2.60;;;25.70;85.40;;;25.19;41.91;100400.91;5020035;28;20042;-77
2023/07/27 09:58:43;;;;;;;6.78;2.33;;;25.60;86.20;;;25.08;42.34;100390.50;4993696;28;20104;-76
2023/07/27 10:01:10;;;;;;;5.68;2.00;;;25.50;84.50;;;25.01;41.68;100400.28;4972451;28;20042;-76
2023/07/27 10:03:41;;;;;;;5.72;2.42;;;25.50;85.60;;;24.97;40.77;100395.25;5000702;28;20519;-76
2023/07/27 10:06:16;;;;;;;3.67;2.22;;;25.40;83.50;;;24.87;41.49;100397.28;5032577;28;20044;-76
2023/07/27 10:08:47;;;;;;;4.22;2.50;;;25.30;86.10;;;24.74;42.14;100391.63;4995048;28;20029;-76
2023/07/27 10:11:16;;;;;;;8.75;2.85;;;25.30;86.30;;;24.81;42.87;100384.53;4967226;28;20041;-76